sensor_id;sensor_type;location;lat;lon;timestamp;pressure;altitude;pressure_sealevel;temperature;humidity
22241;BME280;11289;52.524;13.694;2023-11-21T00:00:19;100238.75;;;7.59;99.65
22241;BME280;11289;52.524;13.694;2023-11-21T00:02:45;100227.72;;;7.59;100.00
22241;BME280;11289;52.524;13.694;2023-11-21T00:05:13;100238.44;;;7.60;99.99
22241;BME280;11289;52.524;13.694;2023-11-21T00:07:43;100245.09;;;7.59;100.00
22241;BME280;11289;52.524;13.694;2023-11-21T00:10:10;100235.84;;;7.55;100.00
22241;BME280;11289;52.524;13.694;2023-11-21T00:12:37;100239.09;;;7.57;100.00
22241;BME280;11289;52.524;13.694;2023-11-21T00:15:04;100254.84;;;7.57;100.00
22241;BME280;11289;52.524;13.694;2023-11-21T00:17:40;100250.25;;;7.52;100.00
22241;BME280;11289;52.524;13.694;2023-11-21T00:20:06;100254.97;;;7.52;100.00
22241;BME280;11289;52.524;13.694;2023-11-21T00:22:36;100252.66;;;7.45;99.98
22241;BME280;11289;52.524;13.694;2023-11-21T00:25:02;100255.44;;;7.45;100.00
22241;BME280;11289;52.524;13.694;2023-11-21T00:27:30;100259.03;;;7.45;100.00
22241;BME280;11289;52.524;13.694;2023-11-21T00:29:56;100254.16;;;7.42;100.00
22241;BME280;11289;52.524;13.694;2023-11-21T00:32:22;100255.22;;;7.32;98.41
22241;BME280;11289;52.524;13.694;2023-11-21T00:34:48;100267.72;;;7.30;98.63
22241;BME280;11289;52.524;13.694;2023-11-21T00:37:14;100272.44;;;7.29;99.53
22241;BME280;11289;52.524;13.694;2023-11-21T00:39:40;100270.00;;;7.28;100.00
22241;BME280;11289;52.524;13.694;2023-11-21T00:42:06;100267.34;;;7.23;99.44
22241;BME280;11289;52.524;13.694;2023-11-21T00:44:32;100266.13;;;7.06;98.30
22241;BME280;11289;52.524;13.694;2023-11-21T00:47:00;100278.94;;;7.02;98.33
22241;BME280;11289;52.524;13.694;2023-11-21T00:49:25;100276.53;;;6.87;97.54
22241;BME280;11289;52.524;13.694;2023-11-21T00:51:52;100279.44;;;6.82;98.67
22241;BME280;11289;52.524;13.694;2023-11-21T00:54:17;100280.25;;;6.82;99.70
22241;BME280;11289;52.524;13.694;2023-11-21T00:56:43;100283.53;;;6.84;99.87
22241;BME280;11289;52.524;13.694;2023-11-21T00:59:09;100277.19;;;6.84;100.00
22241;BME280;11289;52.524;13.694;2023-11-21T01:01:36;100284.59;;;6.74;98.34
22241;BME280;11289;52.524;13.694;2023-11-21T01:04:03;100295.31;;;6.76;99.50
22241;BME280;11289;52.524;13.694;2023-11-21T01:06:29;100273.88;;;6.73;100.00
22241;BME280;11289;52.524;13.694;2023-11-21T01:08:55;100277.13;;;6.75;100.00
22241;BME280;11289;52.524;13.694;2023-11-21T01:11:21;100292.53;;;6.76;100.00
22241;BME280;11289;52.524;13.694;2023-11-21T01:13:47;100287.66;;;6.73;100.00
22241;BME280;11289;52.524;13.694;2023-11-21T01:16:13;100301.13;;;6.74;99.04
22241;BME280;11289;52.524;13.694;2023-11-21T01:18:39;100310.53;;;6.73;99.60
22241;BME280;11289;52.524;13.694;2023-11-21T01:21:05;100307.13;;;6.54;96.98
22241;BME280;11289;52.524;13.694;2023-11-21T01:23:31;100312.28;;;6.47;98.67
22241;BME280;11289;52.524;13.694;2023-11-21T01:25:57;100316.78;;;6.42;98.70
22241;BME280;11289;52.524;13.694;2023-11-21T01:28:23;100322.47;;;6.46;99.25
22241;BME280;11289;52.524;13.694;2023-11-21T01:30:49;100328.09;;;6.41;98.74
22241;BME280;11289;52.524;13.694;2023-11-21T01:33:15;100324.03;;;6.38;98.81
22241;BME280;11289;52.524;13.694;2023-11-21T01:35:42;100325.13;;;6.37;98.78
22241;BME280;11289;52.524;13.694;2023-11-21T01:38:08;100332.28;;;6.38;98.61
22241;BME280;11289;52.524;13.694;2023-11-21T01:40:34;100328.03;;;6.32;98.75
22241;BME280;11289;52.524;13.694;2023-11-21T01:43:00;100336.41;;;6.27;97.81
22241;BME280;11289;52.524;13.694;2023-11-21T01:45:29;100339.50;;;6.12;96.68
22241;BME280;11289;52.524;13.694;2023-11-21T01:47:57;100338.97;;;6.09;98.10
22241;BME280;11289;52.524;13.694;2023-11-21T01:50:24;100342.03;;;6.08;98.09
22241;BME280;11289;52.524;13.694;2023-11-21T01:52:51;100339.69;;;6.01;98.01
22241;BME280;11289;52.524;13.694;2023-11-21T01:55:18;100343.25;;;6.02;97.87
22241;BME280;11289;52.524;13.694;2023-11-21T01:57:45;100338.06;;;6.00;97.84
22241;BME280;11289;52.524;13.694;2023-11-21T02:00:12;100340.28;;;5.98;98.09
22241;BME280;11289;52.524;13.694;2023-11-21T02:02:45;100348.97;;;6.05;98.91
22241;BME280;11289;52.524;13.694;2023-11-21T02:05:12;100354.16;;;5.93;97.45
22241;BME280;11289;52.524;13.694;2023-11-21T02:07:39;100359.84;;;5.97;99.21
22241;BME280;11289;52.524;13.694;2023-11-21T02:10:07;100356.28;;;5.96;98.03
22241;BME280;11289;52.524;13.694;2023-11-21T02:12:34;100355.28;;;5.92;97.62
22241;BME280;11289;52.524;13.694;2023-11-21T02:15:04;100357.59;;;5.85;97.29
22241;BME280;11289;52.524;13.694;2023-11-21T02:17:35;100353.31;;;5.79;97.96
22241;BME280;11289;52.524;13.694;2023-11-21T02:20:02;100351.06;;;5.81;98.98
22241;BME280;11289;52.524;13.694;2023-11-21T02:22:30;100359.56;;;5.84;97.74
22241;BME280;11289;52.524;13.694;2023-11-21T02:24:58;100371.38;;;5.71;96.12
22241;BME280;11289;52.524;13.694;2023-11-21T02:27:24;100361.91;;;5.77;98.03
22241;BME280;11289;52.524;13.694;2023-11-21T02:29:50;100365.16;;;5.79;99.18
22241;BME280;11289;52.524;13.694;2023-11-21T02:32:16;100359.94;;;5.78;97.38
22241;BME280;11289;52.524;13.694;2023-11-21T02:34:45;100367.59;;;5.67;95.76
22241;BME280;11289;52.524;13.694;2023-11-21T02:37:11;100374.91;;;5.57;95.69
22241;BME280;11289;52.524;13.694;2023-11-21T02:39:37;100381.34;;;5.53;96.12
22241;BME280;11289;52.524;13.694;2023-11-21T02:42:03;100381.25;;;5.58;97.22
22241;BME280;11289;52.524;13.694;2023-11-21T02:44:29;100379.63;;;5.57;96.41
22241;BME280;11289;52.524;13.694;2023-11-21T02:46:55;100377.59;;;5.63;98.29
22241;BME280;11289;52.524;13.694;2023-11-21T02:49:23;100386.66;;;5.63;98.12
22241;BME280;11289;52.524;13.694;2023-11-21T02:51:49;100383.72;;;5.60;95.87
22241;BME280;11289;52.524;13.694;2023-11-21T02:54:15;100390.63;;;5.57;96.70
22241;BME280;11289;52.524;13.694;2023-11-21T02:56:42;100392.78;;;5.60;97.47
22241;BME280;11289;52.524;13.694;2023-11-21T02:59:08;100397.78;;;5.58;95.67
22241;BME280;11289;52.524;13.694;2023-11-21T03:01:34;100398.81;;;5.62;97.92
22241;BME280;11289;52.524;13.694;2023-11-21T03:04:00;100389.94;;;5.65;98.21
22241;BME280;11289;52.524;13.694;2023-11-21T03:06:27;100391.88;;;5.65;97.58
22241;BME280;11289;52.524;13.694;2023-11-21T03:08:53;100399.81;;;5.66;97.14
22241;BME280;11289;52.524;13.694;2023-11-21T03:11:19;100404.81;;;5.64;97.41
22241;BME280;11289;52.524;13.694;2023-11-21T03:13:45;100391.56;;;5.66;97.99
22241;BME280;11289;52.524;13.694;2023-11-21T03:16:12;100405.94;;;5.63;95.76
22241;BME280;11289;52.524;13.694;2023-11-21T03:18:38;100405.44;;;5.61;95.96
22241;BME280;11289;52.524;13.694;2023-11-21T03:21:05;100400.09;;;5.51;95.05
22241;BME280;11289;52.524;13.694;2023-11-21T03:23:31;100395.09;;;5.53;96.26
22241;BME280;11289;52.524;13.694;2023-11-21T03:25:58;100393.34;;;5.43;95.13
22241;BME280;11289;52.524;13.694;2023-11-21T03:28:26;100403.47;;;5.48;96.28
22241;BME280;11289;52.524;13.694;2023-11-21T03:30:52;100398.34;;;5.41;96.00
22241;BME280;11289;52.524;13.694;2023-11-21T03:33:18;100411.44;;;5.49;96.47
22241;BME280;11289;52.524;13.694;2023-11-21T03:35:44;100412.84;;;5.47;96.24
22241;BME280;11289;52.524;13.694;2023-11-21T03:38:10;100420.59;;;5.45;96.12
22241;BME280;11289;52.524;13.694;2023-11-21T03:40:36;100412.41;;;5.39;95.29
22241;BME280;11289;52.524;13.694;2023-11-21T03:43:02;100405.72;;;5.27;93.81
22241;BME280;11289;52.524;13.694;2023-11-21T03:45:29;100426.03;;;5.31;94.01
22241;BME280;11289;52.524;13.694;2023-11-21T03:47:55;100427.69;;;5.32;95.10
22241;BME280;11289;52.524;13.694;2023-11-21T03:50:21;100430.34;;;5.37;95.88
22241;BME280;11289;52.524;13.694;2023-11-21T03:52:47;100432.34;;;5.31;94.38
22241;BME280;11289;52.524;13.694;2023-11-21T03:55:13;100437.41;;;5.24;94.36
22241;BME280;11289;52.524;13.694;2023-11-21T03:57:40;100429.88;;;5.16;94.46
22241;BME280;11289;52.524;13.694;2023-11-21T04:00:07;100440.28;;;5.19;94.12
22241;BME280;11289;52.524;13.694;2023-11-21T04:02:34;100449.94;;;5.16;93.45
22241;BME280;11289;52.524;13.694;2023-11-21T04:05:01;100451.03;;;5.15;94.04
22241;BME280;11289;52.524;13.694;2023-11-21T04:07:26;100445.84;;;5.14;95.60
22241;BME280;11289;52.524;13.694;2023-11-21T04:09:52;100446.38;;;5.16;94.96
22241;BME280;11289;52.524;13.694;2023-11-21T04:12:19;100453.03;;;5.10;93.98
22241;BME280;11289;52.524;13.694;2023-11-21T04:14:45;100457.53;;;5.05;93.88
22241;BME280;11289;52.524;13.694;2023-11-21T04:17:11;100456.78;;;5.00;92.10
22241;BME280;11289;52.524;13.694;2023-11-21T04:19:37;100454.09;;;4.95;92.59
22241;BME280;11289;52.524;13.694;2023-11-21T04:22:03;100449.69;;;4.94;93.67
22241;BME280;11289;52.524;13.694;2023-11-21T04:24:29;100465.19;;;4.90;93.79
22241;BME280;11289;52.524;13.694;2023-11-21T04:26:55;100459.91;;;4.93;94.39
22241;BME280;11289;52.524;13.694;2023-11-21T04:29:21;100470.59;;;4.95;94.75
22241;BME280;11289;52.524;13.694;2023-11-21T04:31:48;100473.34;;;4.95;95.01
22241;BME280;11289;52.524;13.694;2023-11-21T04:34:15;100474.75;;;4.92;93.50
22241;BME280;11289;52.524;13.694;2023-11-21T04:36:41;100477.59;;;4.87;93.57
22241;BME280;11289;52.524;13.694;2023-11-21T04:39:07;100483.16;;;4.82;93.55
22241;BME280;11289;52.524;13.694;2023-11-21T04:41:33;100479.28;;;4.83;94.83
22241;BME280;11289;52.524;13.694;2023-11-21T04:43:58;100495.22;;;4.86;94.87
22241;BME280;11289;52.524;13.694;2023-11-21T04:46:26;100487.34;;;4.79;93.36
22241;BME280;11289;52.524;13.694;2023-11-21T04:48:52;100493.88;;;4.83;93.91
22241;BME280;11289;52.524;13.694;2023-11-21T04:51:18;100484.28;;;4.81;94.26
22241;BME280;11289;52.524;13.694;2023-11-21T04:53:44;100488.75;;;4.77;93.16
22241;BME280;11289;52.524;13.694;2023-11-21T04:56:10;100492.13;;;4.68;93.26
22241;BME280;11289;52.524;13.694;2023-11-21T04:58:36;100497.03;;;4.71;93.82
22241;BME280;11289;52.524;13.694;2023-11-21T05:01:02;100502.25;;;4.73;93.55
22241;BME280;11289;52.524;13.694;2023-11-21T05:03:28;100514.38;;;4.72;94.12
22241;BME280;11289;52.524;13.694;2023-11-21T05:05:55;100514.13;;;4.68;92.98
22241;BME280;11289;52.524;13.694;2023-11-21T05:08:21;100512.50;;;4.67;92.99
22241;BME280;11289;52.524;13.694;2023-11-21T05:10:48;100511.16;;;4.65;93.42
22241;BME280;11289;52.524;13.694;2023-11-21T05:13:15;100512.31;;;4.59;93.66
22241;BME280;11289;52.524;13.694;2023-11-21T05:15:43;100514.72;;;4.65;94.30
22241;BME280;11289;52.524;13.694;2023-11-21T05:18:09;100521.88;;;4.66;94.48
22241;BME280;11289;52.524;13.694;2023-11-21T05:20:35;100522.69;;;4.67;94.32
22241;BME280;11289;52.524;13.694;2023-11-21T05:23:01;100531.75;;;4.67;94.70
22241;BME280;11289;52.524;13.694;2023-11-21T05:25:27;100541.13;;;4.66;93.81
22241;BME280;11289;52.524;13.694;2023-11-21T05:27:53;100544.69;;;4.67;94.17
22241;BME280;11289;52.524;13.694;2023-11-21T05:30:21;100537.50;;;4.71;95.48
22241;BME280;11289;52.524;13.694;2023-11-21T05:32:47;100535.78;;;4.75;94.77
22241;BME280;11289;52.524;13.694;2023-11-21T05:35:13;100535.53;;;4.71;94.22
22241;BME280;11289;52.524;13.694;2023-11-21T05:37:42;100543.00;;;4.71;94.24
22241;BME280;11289;52.524;13.694;2023-11-21T05:40:08;100549.28;;;4.71;93.44
22241;BME280;11289;52.524;13.694;2023-11-21T05:42:35;100549.28;;;4.71;93.93
22241;BME280;11289;52.524;13.694;2023-11-21T05:45:01;100551.75;;;4.73;94.51
22241;BME280;11289;52.524;13.694;2023-11-21T05:47:38;100552.00;;;4.77;94.75
22241;BME280;11289;52.524;13.694;2023-11-21T05:50:09;100558.94;;;4.69;93.77
22241;BME280;11289;52.524;13.694;2023-11-21T05:52:41;100558.09;;;4.74;93.69
22241;BME280;11289;52.524;13.694;2023-11-21T05:55:07;100572.88;;;4.78;94.93
22241;BME280;11289;52.524;13.694;2023-11-21T05:57:38;100581.13;;;4.78;94.20
22241;BME280;11289;52.524;13.694;2023-11-21T06:00:12;100578.38;;;4.78;94.26
22241;BME280;11289;52.524;13.694;2023-11-21T06:02:51;100580.63;;;4.76;93.92
22241;BME280;11289;52.524;13.694;2023-11-21T06:05:22;100580.09;;;4.74;94.20
22241;BME280;11289;52.524;13.694;2023-11-21T06:07:50;100586.91;;;4.76;93.59
22241;BME280;11289;52.524;13.694;2023-11-21T06:10:16;100591.69;;;4.70;93.44
22241;BME280;11289;52.524;13.694;2023-11-21T06:12:43;100583.78;;;4.64;93.92
22241;BME280;11289;52.524;13.694;2023-11-21T06:15:10;100607.06;;;4.71;94.09
22241;BME280;11289;52.524;13.694;2023-11-21T06:17:40;100604.59;;;4.70;93.67
22241;BME280;11289;52.524;13.694;2023-11-21T06:20:08;100612.09;;;4.64;93.46
22241;BME280;11289;52.524;13.694;2023-11-21T06:22:41;100609.03;;;4.66;93.93
22241;BME280;11289;52.524;13.694;2023-11-21T06:25:08;100614.91;;;4.59;92.49
22241;BME280;11289;52.524;13.694;2023-11-21T06:27:40;100607.53;;;4.55;93.26
22241;BME280;11289;52.524;13.694;2023-11-21T06:30:07;100615.53;;;4.51;91.84
22241;BME280;11289;52.524;13.694;2023-11-21T06:32:38;100618.84;;;4.48;92.18
22241;BME280;11289;52.524;13.694;2023-11-21T06:35:06;100622.72;;;4.47;92.89
22241;BME280;11289;52.524;13.694;2023-11-21T06:37:32;100640.03;;;4.47;92.26
22241;BME280;11289;52.524;13.694;2023-11-21T06:39:59;100644.22;;;4.40;91.20
22241;BME280;11289;52.524;13.694;2023-11-21T06:42:26;100643.16;;;4.35;91.98
22241;BME280;11289;52.524;13.694;2023-11-21T06:44:52;100651.09;;;4.37;93.16
22241;BME280;11289;52.524;13.694;2023-11-21T06:47:20;100649.72;;;4.40;93.02
22241;BME280;11289;52.524;13.694;2023-11-21T06:49:46;100655.75;;;4.42;92.96
22241;BME280;11289;52.524;13.694;2023-11-21T06:52:15;100650.56;;;4.40;92.88
22241;BME280;11289;52.524;13.694;2023-11-21T06:54:41;100658.50;;;4.42;93.37
22241;BME280;11289;52.524;13.694;2023-11-21T06:57:07;100659.03;;;4.44;91.67
22241;BME280;11289;52.524;13.694;2023-11-21T06:59:33;100659.34;;;4.37;92.24
22241;BME280;11289;52.524;13.694;2023-11-21T07:01:59;100665.97;;;4.36;91.74
22241;BME280;11289;52.524;13.694;2023-11-21T07:04:25;100651.47;;;4.25;91.60
22241;BME280;11289;52.524;13.694;2023-11-21T07:06:54;100661.88;;;4.33;92.28
22241;BME280;11289;52.524;13.694;2023-11-21T07:09:20;100664.03;;;4.36;92.07
22241;BME280;11289;52.524;13.694;2023-11-21T07:11:49;100657.75;;;4.31;92.51
22241;BME280;11289;52.524;13.694;2023-11-21T07:14:15;100670.72;;;4.25;90.72
22241;BME280;11289;52.524;13.694;2023-11-21T07:16:42;100679.53;;;4.27;91.65
22241;BME280;11289;52.524;13.694;2023-11-21T07:19:08;100685.59;;;4.24;90.32
22241;BME280;11289;52.524;13.694;2023-11-21T07:21:35;100688.94;;;4.16;89.93
22241;BME280;11289;52.524;13.694;2023-11-21T07:24:05;100679.06;;;4.15;90.49
22241;BME280;11289;52.524;13.694;2023-11-21T07:26:35;100692.28;;;4.08;90.21
22241;BME280;11289;52.524;13.694;2023-11-21T07:29:04;100693.16;;;4.03;90.43
22241;BME280;11289;52.524;13.694;2023-11-21T07:31:30;100700.53;;;4.08;91.11
22241;BME280;11289;52.524;13.694;2023-11-21T07:33:57;100694.22;;;4.07;91.11
22241;BME280;11289;52.524;13.694;2023-11-21T07:36:23;100700.25;;;4.09;90.84
22241;BME280;11289;52.524;13.694;2023-11-21T07:38:50;100687.91;;;4.07;90.40
22241;BME280;11289;52.524;13.694;2023-11-21T07:41:17;100697.22;;;4.11;91.16
22241;BME280;11289;52.524;13.694;2023-11-21T07:43:44;100713.09;;;4.19;91.61
22241;BME280;11289;52.524;13.694;2023-11-21T07:46:10;100705.44;;;4.16;90.43
22241;BME280;11289;52.524;13.694;2023-11-21T07:48:39;100699.13;;;4.15;91.20
22241;BME280;11289;52.524;13.694;2023-11-21T07:51:05;100705.44;;;4.16;89.55
22241;BME280;11289;52.524;13.694;2023-11-21T07:53:32;100701.03;;;4.15;90.54
22241;BME280;11289;52.524;13.694;2023-11-21T07:56:02;100713.91;;;4.19;90.04
22241;BME280;11289;52.524;13.694;2023-11-21T07:58:29;100719.19;;;4.16;90.37
22241;BME280;11289;52.524;13.694;2023-11-21T08:00:54;100721.94;;;4.11;90.23
22241;BME280;11289;52.524;13.694;2023-11-21T08:03:20;100715.06;;;4.13;90.98
22241;BME280;11289;52.524;13.694;2023-11-21T08:05:47;100730.13;;;4.21;91.62
22241;BME280;11289;52.524;13.694;2023-11-21T08:08:13;100730.91;;;4.27;91.81
22241;BME280;11289;52.524;13.694;2023-11-21T08:10:39;100737.75;;;4.29;91.89
22241;BME280;11289;52.524;13.694;2023-11-21T08:13:05;100750.66;;;4.34;91.11
22241;BME280;11289;52.524;13.694;2023-11-21T08:15:32;100738.31;;;4.31;91.86
22241;BME280;11289;52.524;13.694;2023-11-21T08:17:58;100753.09;;;4.35;91.43
22241;BME280;11289;52.524;13.694;2023-11-21T08:20:26;100754.53;;;4.28;89.67
22241;BME280;11289;52.524;13.694;2023-11-21T08:22:53;100749.34;;;4.21;90.26
22241;BME280;11289;52.524;13.694;2023-11-21T08:25:19;100760.09;;;4.17;89.92
22241;BME280;11289;52.524;13.694;2023-11-21T08:27:46;100753.22;;;4.20;90.65
22241;BME280;11289;52.524;13.694;2023-11-21T08:30:12;100762.56;;;4.19;89.84
22241;BME280;11289;52.524;13.694;2023-11-21T08:32:40;100765.31;;;4.19;89.53
22241;BME280;11289;52.524;13.694;2023-11-21T08:35:07;100760.97;;;4.13;89.76
22241;BME280;11289;52.524;13.694;2023-11-21T08:37:34;100757.38;;;4.17;89.65
22241;BME280;11289;52.524;13.694;2023-11-21T08:40:04;100748.31;;;4.17;90.13
22241;BME280;11289;52.524;13.694;2023-11-21T08:42:34;100761.22;;;4.16;89.67
22241;BME280;11289;52.524;13.694;2023-11-21T08:45:00;100766.69;;;4.16;89.99
22241;BME280;11289;52.524;13.694;2023-11-21T08:47:27;100770.31;;;4.12;89.28
22241;BME280;11289;52.524;13.694;2023-11-21T08:49:53;100764.28;;;4.10;89.60
22241;BME280;11289;52.524;13.694;2023-11-21T08:52:19;100776.09;;;4.10;89.76
22241;BME280;11289;52.524;13.694;2023-11-21T08:54:49;100783.75;;;4.13;90.44
22241;BME280;11289;52.524;13.694;2023-11-21T08:57:25;100781.28;;;4.17;90.05
22241;BME280;11289;52.524;13.694;2023-11-21T08:59:51;100794.50;;;4.10;88.97
22241;BME280;11289;52.524;13.694;2023-11-21T09:02:21;100782.44;;;4.06;89.48
22241;BME280;11289;52.524;13.694;2023-11-21T09:04:49;100796.13;;;4.11;90.65
22241;BME280;11289;52.524;13.694;2023-11-21T09:07:16;100804.94;;;4.08;89.72
22241;BME280;11289;52.524;13.694;2023-11-21T09:09:42;100806.88;;;4.07;90.17
22241;BME280;11289;52.524;13.694;2023-11-21T09:12:08;100801.69;;;4.00;89.99
22241;BME280;11289;52.524;13.694;2023-11-21T09:14:36;100811.81;;;4.05;90.71
22241;BME280;11289;52.524;13.694;2023-11-21T09:17:02;100816.22;;;4.06;90.79
22241;BME280;11289;52.524;13.694;2023-11-21T09:19:29;100817.31;;;4.05;90.53
22241;BME280;11289;52.524;13.694;2023-11-21T09:21:55;100827.50;;;4.05;90.96
22241;BME280;11289;52.524;13.694;2023-11-21T09:24:22;100823.66;;;4.06;90.98
22241;BME280;11289;52.524;13.694;2023-11-21T09:26:48;100823.94;;;4.04;90.77
22241;BME280;11289;52.524;13.694;2023-11-21T09:29:15;100830.81;;;3.96;90.21
22241;BME280;11289;52.524;13.694;2023-11-21T09:31:41;100827.53;;;3.94;91.01
22241;BME280;11289;52.524;13.694;2023-11-21T09:34:09;100838.25;;;3.96;91.46
22241;BME280;11289;52.524;13.694;2023-11-21T09:36:37;100838.81;;;3.98;91.83
22241;BME280;11289;52.524;13.694;2023-11-21T09:39:05;100843.19;;;3.99;92.06
22241;BME280;11289;52.524;13.694;2023-11-21T09:44:18;100846.25;;;3.87;91.85
22241;BME280;11289;52.524;13.694;2023-11-21T09:46:47;100851.75;;;3.87;91.10
22241;BME280;11289;52.524;13.694;2023-11-21T09:49:14;100852.81;;;3.96;91.62
22241;BME280;11289;52.524;13.694;2023-11-21T09:51:43;100852.78;;;4.01;92.18
22241;BME280;11289;52.524;13.694;2023-11-21T09:54:10;100850.06;;;3.96;89.96
22241;BME280;11289;52.524;13.694;2023-11-21T09:56:38;100858.53;;;4.05;91.75
22241;BME280;11289;52.524;13.694;2023-11-21T09:59:05;100860.47;;;4.10;91.18
22241;BME280;11289;52.524;13.694;2023-11-21T10:01:36;100867.28;;;4.17;90.89
22241;BME280;11289;52.524;13.694;2023-11-21T10:04:03;100870.59;;;4.14;90.58
22241;BME280;11289;52.524;13.694;2023-11-21T10:06:30;100865.41;;;4.08;89.24
22241;BME280;11289;52.524;13.694;2023-11-21T10:08:57;100868.72;;;4.05;89.59
22241;BME280;11289;52.524;13.694;2023-11-21T10:11:25;100870.63;;;4.09;89.74
22241;BME280;11289;52.524;13.694;2023-11-21T10:13:53;100876.97;;;4.05;89.34
22241;BME280;11289;52.524;13.694;2023-11-21T10:16:19;100874.75;;;4.12;90.33
22241;BME280;11289;52.524;13.694;2023-11-21T10:18:52;100860.47;;;4.05;89.90
22241;BME280;11289;52.524;13.694;2023-11-21T10:21:21;100867.06;;;4.09;90.17
22241;BME280;11289;52.524;13.694;2023-11-21T10:23:47;100873.09;;;4.11;90.14
22241;BME280;11289;52.524;13.694;2023-11-21T10:26:13;100873.38;;;4.09;89.28
22241;BME280;11289;52.524;13.694;2023-11-21T10:28:58;100879.66;;;4.15;90.02
22241;BME280;11289;52.524;13.694;2023-11-21T10:31:27;100873.63;;;4.13;88.96
22241;BME280;11289;52.524;13.694;2023-11-21T10:33:53;100886.28;;;4.09;88.61
22241;BME280;11289;52.524;13.694;2023-11-21T10:36:28;100890.69;;;4.05;89.03
22241;BME280;11289;52.524;13.694;2023-11-21T10:38:54;100882.50;;;3.89;88.17
22241;BME280;11289;52.524;13.694;2023-11-21T10:41:20;100881.44;;;3.85;88.67
22241;BME280;11289;52.524;13.694;2023-11-21T10:43:47;100876.75;;;3.86;88.25
22241;BME280;11289;52.524;13.694;2023-11-21T10:46:14;100890.75;;;3.89;90.00
22241;BME280;11289;52.524;13.694;2023-11-21T10:48:43;100893.50;;;3.84;88.93
22241;BME280;11289;52.524;13.694;2023-11-21T10:51:09;100896.81;;;3.76;89.56
22241;BME280;11289;52.524;13.694;2023-11-21T10:53:39;100892.13;;;3.81;90.61
22241;BME280;11289;52.524;13.694;2023-11-21T10:56:08;100897.63;;;3.81;90.30
22241;BME280;11289;52.524;13.694;2023-11-21T10:58:38;100894.63;;;3.78;90.90
22241;BME280;11289;52.524;13.694;2023-11-21T11:01:06;100899.53;;;3.86;90.95
22241;BME280;11289;52.524;13.694;2023-11-21T11:03:33;100898.97;;;3.89;91.67
22241;BME280;11289;52.524;13.694;2023-11-21T11:06:04;100899.25;;;3.88;91.07
22241;BME280;11289;52.524;13.694;2023-11-21T11:08:31;100903.41;;;3.80;90.84
22241;BME280;11289;52.524;13.694;2023-11-21T11:10:57;100901.75;;;3.84;90.78
22241;BME280;11289;52.524;13.694;2023-11-21T11:13:24;100902.31;;;3.81;90.58
22241;BME280;11289;52.524;13.694;2023-11-21T11:15:57;100908.31;;;3.93;91.03
22241;BME280;11289;52.524;13.694;2023-11-21T11:18:25;100913.81;;;3.98;90.62
22241;BME280;11289;52.524;13.694;2023-11-21T11:20:51;100918.50;;;3.98;89.51
22241;BME280;11289;52.524;13.694;2023-11-21T11:26:52;100916.28;;;3.95;89.90
22241;BME280;11289;52.524;13.694;2023-11-21T11:32:36;100926.72;;;3.88;89.04
22241;BME280;11289;52.524;13.694;2023-11-21T11:35:11;100923.44;;;3.80;89.63
22241;BME280;11289;52.524;13.694;2023-11-21T11:37:43;100944.59;;;3.90;89.64
22241;BME280;11289;52.524;13.694;2023-11-21T11:40:12;100945.97;;;3.82;89.06
22241;BME280;11289;52.524;13.694;2023-11-21T11:42:38;100944.34;;;3.81;90.31
22241;BME280;11289;52.524;13.694;2023-11-21T11:45:25;100957.25;;;3.81;89.74
22241;BME280;11289;52.524;13.694;2023-11-21T11:47:57;100955.31;;;3.81;89.31
22241;BME280;11289;52.524;13.694;2023-11-21T11:50:23;100960.56;;;3.78;88.96
22241;BME280;11289;52.524;13.694;2023-11-21T11:52:52;100969.06;;;3.81;89.09
22241;BME280;11289;52.524;13.694;2023-11-21T11:55:21;100967.16;;;3.77;88.37
22241;BME280;11289;52.524;13.694;2023-11-21T11:57:49;100964.38;;;3.87;89.34
22241;BME280;11289;52.524;13.694;2023-11-21T12:00:19;100967.94;;;3.93;88.55
22241;BME280;11289;52.524;13.694;2023-11-21T12:02:49;100973.44;;;3.98;89.49
22241;BME280;11289;52.524;13.694;2023-11-21T12:05:20;100977.00;;;3.98;88.34
22241;BME280;11289;52.524;13.694;2023-11-21T12:10:18;100981.41;;;3.89;86.69
22241;BME280;11289;52.524;13.694;2023-11-21T12:12:55;100988.00;;;3.93;87.70
22241;BME280;11289;52.524;13.694;2023-11-21T12:15:23;100997.06;;;3.94;86.96
22241;BME280;11289;52.524;13.694;2023-11-21T12:17:49;100999.00;;;3.83;86.79
22241;BME280;11289;52.524;13.694;2023-11-21T12:20:18;100994.63;;;3.82;87.33
22241;BME280;11289;52.524;13.694;2023-11-21T12:22:56;101003.09;;;3.80;87.08
22241;BME280;11289;52.524;13.694;2023-11-21T12:25:23;101002.84;;;3.82;87.66
22241;BME280;11289;52.524;13.694;2023-11-21T12:27:51;101022.06;;;3.87;87.49
22241;BME280;11289;52.524;13.694;2023-11-21T12:30:19;101019.59;;;3.86;87.41
22241;BME280;11289;52.524;13.694;2023-11-21T12:32:49;101020.97;;;3.83;87.45
22241;BME280;11289;52.524;13.694;2023-11-21T12:35:18;101029.75;;;3.90;87.36
22241;BME280;11289;52.524;13.694;2023-11-21T12:37:45;101039.09;;;3.89;87.54
22241;BME280;11289;52.524;13.694;2023-11-21T12:40:12;101041.84;;;3.89;87.87
22241;BME280;11289;52.524;13.694;2023-11-21T12:42:41;101029.75;;;3.59;86.82
22241;BME280;11289;52.524;13.694;2023-11-21T12:47:51;101047.03;;;3.49;88.46
22241;BME280;11289;52.524;13.694;2023-11-21T12:50:24;101042.13;;;3.52;89.59
22241;BME280;11289;52.524;13.694;2023-11-21T12:52:58;101034.16;;;3.50;89.25
22241;BME280;11289;52.524;13.694;2023-11-21T12:55:24;101034.69;;;3.47;89.58
22241;BME280;11289;52.524;13.694;2023-11-21T12:57:55;101030.31;;;3.36;88.81
22241;BME280;11289;52.524;13.694;2023-11-21T13:00:31;101033.03;;;3.30;89.90
22241;BME280;11289;52.524;13.694;2023-11-21T13:02:59;101041.81;;;3.27;90.59
22241;BME280;11289;52.524;13.694;2023-11-21T13:05:33;101049.50;;;3.30;90.96